Aviation Digital Data Service (ADDS)

Output produced by METARs form (1325 UTC 23 January 2019)
found at http://www.aviationweather.gov/metar/data/
 
Forecast for: ZBYN (TAIYUAN/WUSU , CN)
Text: TAF ZBYN 230909Z 2312/2412 09003MPS 6000 NSC TX07/2407Z TNM11/22Z
Forecast period: 1200 UTC 23 January 2019 to 1200 UTC 24 January 2019
Forecast type: FROM: standard forecast or significant change
Winds: from the E (90 degrees) at 7 MPH (6 knots; 3.1 m/s)
Visibility: 4 miles (6 km)
Ceiling: unknown
Clouds: missing
Weather: no significant weather forecast for this period